sensor_id;sensor_type;location;lat;lon;timestamp;temperature;humidity
31975;DHT22;18500;43.618;1.474;2022-12-07T07:13:09;6.80;1.00
31975;DHT22;18500;43.618;1.474;2022-12-07T07:15:37;6.90;1.00
31975;DHT22;18500;43.618;1.474;2022-12-07T07:18:03;6.90;1.00
31975;DHT22;18500;43.618;1.474;2022-12-07T07:20:29;6.90;1.00
31975;DHT22;18500;43.618;1.474;2022-12-07T07:22:55;7.00;1.00
31975;DHT22;18500;43.618;1.474;2022-12-07T07:25:21;7.00;1.00
31975;DHT22;18500;43.618;1.474;2022-12-07T07:27:47;7.00;1.00
31975;DHT22;18500;43.618;1.474;2022-12-07T07:30:12;7.10;1.00
31975;DHT22;18500;43.618;1.474;2022-12-07T07:32:38;7.10;1.00
31975;DHT22;18500;43.618;1.474;2022-12-07T07:35:04;7.00;1.00
31975;DHT22;18500;43.618;1.474;2022-12-07T07:37:30;7.00;1.00
31975;DHT22;18500;43.618;1.474;2022-12-07T07:39:56;7.00;1.00
31975;DHT22;18500;43.618;1.474;2022-12-07T07:42:22;7.10;1.00
31975;DHT22;18500;43.618;1.474;2022-12-07T07:44:47;7.10;1.00
31975;DHT22;18500;43.618;1.474;2022-12-07T07:47:13;7.20;1.00
31975;DHT22;18500;43.618;1.474;2022-12-07T07:49:39;7.20;1.00
31975;DHT22;18500;43.618;1.474;2022-12-07T07:52:07;7.20;1.00
31975;DHT22;18500;43.618;1.474;2022-12-07T07:54:33;7.20;1.00
31975;DHT22;18500;43.618;1.474;2022-12-07T07:56:59;7.20;1.00
31975;DHT22;18500;43.618;1.474;2022-12-07T07:59:24;7.30;1.00
31975;DHT22;18500;43.618;1.474;2022-12-07T08:01:50;7.40;1.00
31975;DHT22;18500;43.618;1.474;2022-12-07T08:04:16;7.40;1.00
31975;DHT22;18500;43.618;1.474;2022-12-07T08:06:42;7.40;1.00
31975;DHT22;18500;43.618;1.474;2022-12-07T08:09:08;7.50;1.00
31975;DHT22;18500;43.618;1.474;2022-12-07T08:11:34;7.50;1.00
31975;DHT22;18500;43.618;1.474;2022-12-07T08:14:00;7.60;1.00
31975;DHT22;18500;43.618;1.474;2022-12-07T08:16:26;7.60;1.00
31975;DHT22;18500;43.618;1.474;2022-12-07T08:18:52;7.60;1.00
31975;DHT22;18500;43.618;1.474;2022-12-07T08:21:17;7.70;1.00
31975;DHT22;18500;43.618;1.474;2022-12-07T08:23:43;7.70;1.00
31975;DHT22;18500;43.618;1.474;2022-12-07T08:26:11;7.80;1.00
31975;DHT22;18500;43.618;1.474;2022-12-07T08:28:38;7.70;1.00
31975;DHT22;18500;43.618;1.474;2022-12-07T08:31:22;7.60;1.00
31975;DHT22;18500;43.618;1.474;2022-12-07T08:33:48;7.60;1.00
31975;DHT22;18500;43.618;1.474;2022-12-07T08:36:14;7.60;1.00
31975;DHT22;18500;43.618;1.474;2022-12-07T08:38:41;7.40;1.00
31975;DHT22;18500;43.618;1.474;2022-12-07T08:41:07;7.40;1.00
31975;DHT22;18500;43.618;1.474;2022-12-07T08:43:34;7.40;1.00
31975;DHT22;18500;43.618;1.474;2022-12-07T08:46:06;7.50;1.00
31975;DHT22;18500;43.618;1.474;2022-12-07T08:48:34;7.50;1.00
31975;DHT22;18500;43.618;1.474;2022-12-07T08:51:02;7.50;1.00
31975;DHT22;18500;43.618;1.474;2022-12-07T08:53:28;7.50;1.00
31975;DHT22;18500;43.618;1.474;2022-12-07T08:55:56;7.50;1.00
31975;DHT22;18500;43.618;1.474;2022-12-07T08:58:21;7.60;1.00
31975;DHT22;18500;43.618;1.474;2022-12-07T09:00:47;7.60;1.00
31975;DHT22;18500;43.618;1.474;2022-12-07T09:03:13;7.90;1.00
31975;DHT22;18500;43.618;1.474;2022-12-07T09:05:39;7.90;1.00
31975;DHT22;18500;43.618;1.474;2022-12-07T09:08:05;8.10;1.00
31975;DHT22;18500;43.618;1.474;2022-12-07T09:10:31;8.30;1.00
31975;DHT22;18500;43.618;1.474;2022-12-07T09:12:58;8.20;1.00
31975;DHT22;18500;43.618;1.474;2022-12-07T09:15:27;8.30;1.00
31975;DHT22;18500;43.618;1.474;2022-12-07T09:17:53;8.20;1.00
31975;DHT22;18500;43.618;1.474;2022-12-07T09:20:18;8.30;1.00
31975;DHT22;18500;43.618;1.474;2022-12-07T09:22:44;8.20;1.00
31975;DHT22;18500;43.618;1.474;2022-12-07T09:25:10;8.20;1.00
31975;DHT22;18500;43.618;1.474;2022-12-07T09:27:36;8.30;1.00
31975;DHT22;18500;43.618;1.474;2022-12-07T09:30:03;8.40;1.00
31975;DHT22;18500;43.618;1.474;2022-12-07T09:32:28;8.40;1.00
31975;DHT22;18500;43.618;1.474;2022-12-07T09:34:54;8.50;1.00
31975;DHT22;18500;43.618;1.474;2022-12-07T09:37:20;8.60;1.00
31975;DHT22;18500;43.618;1.474;2022-12-07T09:39:46;8.70;1.00
31975;DHT22;18500;43.618;1.474;2022-12-07T09:42:38;8.60;1.00
31975;DHT22;18500;43.618;1.474;2022-12-07T09:45:19;8.60;1.00
31975;DHT22;18500;43.618;1.474;2022-12-07T09:47:46;8.60;1.00
31975;DHT22;18500;43.618;1.474;2022-12-07T09:50:18;8.70;1.00
31975;DHT22;18500;43.618;1.474;2022-12-07T09:52:44;8.80;1.00
31975;DHT22;18500;43.618;1.474;2022-12-07T09:55:19;8.90;1.00
31975;DHT22;18500;43.618;1.474;2022-12-07T09:57:47;9.00;1.00
31975;DHT22;18500;43.618;1.474;2022-12-07T10:00:16;9.00;1.00
31975;DHT22;18500;43.618;1.474;2022-12-07T10:02:46;9.00;1.00
31975;DHT22;18500;43.618;1.474;2022-12-07T10:05:32;9.00;1.00
31975;DHT22;18500;43.618;1.474;2022-12-07T10:07:59;9.10;1.00
31975;DHT22;18500;43.618;1.474;2022-12-07T10:10:29;9.20;1.00
31975;DHT22;18500;43.618;1.474;2022-12-07T10:18:40;9.50;1.00
31975;DHT22;18500;43.618;1.474;2022-12-07T10:21:18;9.50;1.00
31975;DHT22;18500;43.618;1.474;2022-12-07T10:24:05;9.50;1.00
31975;DHT22;18500;43.618;1.474;2022-12-07T10:26:49;9.60;1.00
31975;DHT22;18500;43.618;1.474;2022-12-07T10:29:36;9.60;1.00
31975;DHT22;18500;43.618;1.474;2022-12-07T10:32:35;9.60;1.00
31975;DHT22;18500;43.618;1.474;2022-12-07T10:35:24;9.50;1.00
31975;DHT22;18500;43.618;1.474;2022-12-07T10:37:53;9.50;1.00
31975;DHT22;18500;43.618;1.474;2022-12-07T10:40:35;9.50;1.00
31975;DHT22;18500;43.618;1.474;2022-12-07T10:43:19;9.70;1.00
31975;DHT22;18500;43.618;1.474;2022-12-07T10:48:26;9.70;1.00
31975;DHT22;18500;43.618;1.474;2022-12-07T11:04:24;10.10;1.00
31975;DHT22;18500;43.618;1.474;2022-12-07T11:18:27;10.00;1.00
31975;DHT22;18500;43.618;1.474;2022-12-07T11:37:33;10.30;1.00
31975;DHT22;18500;43.618;1.474;2022-12-07T11:40:05;10.50;1.00
31975;DHT22;18500;43.618;1.474;2022-12-07T11:42:42;10.50;1.00
31975;DHT22;18500;43.618;1.474;2022-12-07T11:45:32;10.70;1.00
31975;DHT22;18500;43.618;1.474;2022-12-07T11:50:56;10.60;1.00
31975;DHT22;18500;43.618;1.474;2022-12-07T11:53:36;10.60;1.00
31975;DHT22;18500;43.618;1.474;2022-12-07T11:56:12;10.50;1.00
31975;DHT22;18500;43.618;1.474;2022-12-07T12:06:26;11.10;1.00
31975;DHT22;18500;43.618;1.474;2022-12-07T12:09:04;11.10;1.00
31975;DHT22;18500;43.618;1.474;2022-12-07T12:17:32;11.30;1.00
31975;DHT22;18500;43.618;1.474;2022-12-07T12:33:51;11.50;1.00
31975;DHT22;18500;43.618;1.474;2022-12-07T12:47:01;11.70;1.00
31975;DHT22;18500;43.618;1.474;2022-12-07T12:49:43;11.80;1.00
31975;DHT22;18500;43.618;1.474;2022-12-07T12:57:35;12.10;1.00
31975;DHT22;18500;43.618;1.474;2022-12-07T13:00:16;12.00;1.00
31975;DHT22;18500;43.618;1.474;2022-12-07T13:02:49;12.00;1.00
31975;DHT22;18500;43.618;1.474;2022-12-07T13:05:20;12.00;1.00
31975;DHT22;18500;43.618;1.474;2022-12-07T13:28:49;12.10;1.00
31975;DHT22;18500;43.618;1.474;2022-12-07T13:31:37;12.30;1.00
31975;DHT22;18500;43.618;1.474;2022-12-07T13:34:26;12.30;1.00
31975;DHT22;18500;43.618;1.474;2022-12-07T13:36:51;12.10;1.00
31975;DHT22;18500;43.618;1.474;2022-12-07T13:39:19;12.10;1.00
31975;DHT22;18500;43.618;1.474;2022-12-07T13:41:50;12.10;1.00
31975;DHT22;18500;43.618;1.474;2022-12-07T13:44:18;12.00;1.00
31975;DHT22;18500;43.618;1.474;2022-12-07T13:50:23;12.20;1.00
31975;DHT22;18500;43.618;1.474;2022-12-07T13:52:50;12.20;1.00
31975;DHT22;18500;43.618;1.474;2022-12-07T13:55:16;12.20;1.00
31975;DHT22;18500;43.618;1.474;2022-12-07T13:57:45;12.20;1.00
31975;DHT22;18500;43.618;1.474;2022-12-07T14:00:26;12.20;1.00
31975;DHT22;18500;43.618;1.474;2022-12-07T14:02:58;12.20;1.00
31975;DHT22;18500;43.618;1.474;2022-12-07T14:05:30;12.30;1.00
31975;DHT22;18500;43.618;1.474;2022-12-07T14:08:03;12.30;1.00
31975;DHT22;18500;43.618;1.474;2022-12-07T14:12:57;12.20;1.00
31975;DHT22;18500;43.618;1.474;2022-12-07T14:15:31;12.10;1.00
31975;DHT22;18500;43.618;1.474;2022-12-07T14:17:59;12.20;1.00
31975;DHT22;18500;43.618;1.474;2022-12-07T14:20:37;12.10;1.00
31975;DHT22;18500;43.618;1.474;2022-12-07T14:23:05;12.10;1.00
31975;DHT22;18500;43.618;1.474;2022-12-07T14:26:18;12.00;1.00
31975;DHT22;18500;43.618;1.474;2022-12-07T14:28:44;12.10;1.00
31975;DHT22;18500;43.618;1.474;2022-12-07T14:31:16;12.00;1.00
31975;DHT22;18500;43.618;1.474;2022-12-07T14:33:42;12.00;1.00
31975;DHT22;18500;43.618;1.474;2022-12-07T14:36:12;12.00;1.00
31975;DHT22;18500;43.618;1.474;2022-12-07T14:38:39;12.00;1.00
31975;DHT22;18500;43.618;1.474;2022-12-07T14:41:15;12.00;1.00
31975;DHT22;18500;43.618;1.474;2022-12-07T14:44:00;12.00;1.00
31975;DHT22;18500;43.618;1.474;2022-12-07T14:46:26;11.80;1.00
31975;DHT22;18500;43.618;1.474;2022-12-07T14:48:52;11.80;1.00
31975;DHT22;18500;43.618;1.474;2022-12-07T14:51:17;11.90;1.00
31975;DHT22;18500;43.618;1.474;2022-12-07T14:53:47;11.90;1.00
31975;DHT22;18500;43.618;1.474;2022-12-07T14:56:13;11.70;1.00
31975;DHT22;18500;43.618;1.474;2022-12-07T14:58:40;11.40;1.00
31975;DHT22;18500;43.618;1.474;2022-12-07T15:01:06;11.10;1.00
31975;DHT22;18500;43.618;1.474;2022-12-07T15:03:31;11.00;1.00
31975;DHT22;18500;43.618;1.474;2022-12-07T15:06:00;11.10;1.00
31975;DHT22;18500;43.618;1.474;2022-12-07T15:08:26;11.10;1.00
31975;DHT22;18500;43.618;1.474;2022-12-07T15:10:51;11.00;1.00
31975;DHT22;18500;43.618;1.474;2022-12-07T15:13:17;11.00;1.00
31975;DHT22;18500;43.618;1.474;2022-12-07T15:16:02;10.90;1.00
31975;DHT22;18500;43.618;1.474;2022-12-07T15:18:27;10.80;1.00
31975;DHT22;18500;43.618;1.474;2022-12-07T15:20:53;10.80;1.00
31975;DHT22;18500;43.618;1.474;2022-12-07T15:23:19;10.60;1.00
31975;DHT22;18500;43.618;1.474;2022-12-07T15:25:46;10.50;1.00
31975;DHT22;18500;43.618;1.474;2022-12-07T15:28:13;10.50;1.00
31975;DHT22;18500;43.618;1.474;2022-12-07T15:30:40;10.60;1.00
31975;DHT22;18500;43.618;1.474;2022-12-07T15:33:08;10.90;1.00
31975;DHT22;18500;43.618;1.474;2022-12-07T15:35:33;10.80;1.00
31975;DHT22;18500;43.618;1.474;2022-12-07T15:38:03;11.00;1.00
31975;DHT22;18500;43.618;1.474;2022-12-07T15:40:29;11.00;1.00
31975;DHT22;18500;43.618;1.474;2022-12-07T15:42:54;10.90;1.00
31975;DHT22;18500;43.618;1.474;2022-12-07T15:45:20;10.70;1.00
31975;DHT22;18500;43.618;1.474;2022-12-07T15:47:46;10.70;1.00
31975;DHT22;18500;43.618;1.474;2022-12-07T15:50:13;10.50;1.00
31975;DHT22;18500;43.618;1.474;2022-12-07T15:52:40;10.30;1.00
31975;DHT22;18500;43.618;1.474;2022-12-07T15:55:06;10.20;1.00
31975;DHT22;18500;43.618;1.474;2022-12-07T15:57:33;10.10;1.00
31975;DHT22;18500;43.618;1.474;2022-12-07T16:00:00;10.40;1.00
31975;DHT22;18500;43.618;1.474;2022-12-07T16:02:26;10.40;1.00
31975;DHT22;18500;43.618;1.474;2022-12-07T16:04:51;10.10;1.00
31975;DHT22;18500;43.618;1.474;2022-12-07T16:07:18;9.90;1.00
31975;DHT22;18500;43.618;1.474;2022-12-07T16:09:45;9.70;1.00
31975;DHT22;18500;43.618;1.474;2022-12-07T16:12:12;9.50;1.00
31975;DHT22;18500;43.618;1.474;2022-12-07T16:14:38;9.40;1.00
31975;DHT22;18500;43.618;1.474;2022-12-07T16:17:06;9.20;1.00
31975;DHT22;18500;43.618;1.474;2022-12-07T16:19:32;9.10;1.00
31975;DHT22;18500;43.618;1.474;2022-12-07T16:21:58;9.00;1.00
31975;DHT22;18500;43.618;1.474;2022-12-07T16:24:25;8.90;1.00
31975;DHT22;18500;43.618;1.474;2022-12-07T16:26:50;8.90;1.00
31975;DHT22;18500;43.618;1.474;2022-12-07T16:29:18;8.90;1.00
31975;DHT22;18500;43.618;1.474;2022-12-07T16:31:44;8.80;1.00
31975;DHT22;18500;43.618;1.474;2022-12-07T16:34:10;8.70;1.00
31975;DHT22;18500;43.618;1.474;2022-12-07T16:36:36;8.70;1.00
31975;DHT22;18500;43.618;1.474;2022-12-07T16:39:03;8.80;1.00
31975;DHT22;18500;43.618;1.474;2022-12-07T16:41:28;8.80;1.00
31975;DHT22;18500;43.618;1.474;2022-12-07T16:43:54;8.80;1.00
31975;DHT22;18500;43.618;1.474;2022-12-07T16:46:20;8.80;1.00
31975;DHT22;18500;43.618;1.474;2022-12-07T16:48:46;8.70;1.00
31975;DHT22;18500;43.618;1.474;2022-12-07T16:51:13;8.60;1.00
31975;DHT22;18500;43.618;1.474;2022-12-07T16:53:41;8.50;1.00
31975;DHT22;18500;43.618;1.474;2022-12-07T16:56:14;8.40;1.00
31975;DHT22;18500;43.618;1.474;2022-12-07T16:58:42;8.30;1.00
31975;DHT22;18500;43.618;1.474;2022-12-07T17:01:15;8.10;1.00
31975;DHT22;18500;43.618;1.474;2022-12-07T17:03:42;8.00;1.00
31975;DHT22;18500;43.618;1.474;2022-12-07T17:06:19;7.90;1.00
31975;DHT22;18500;43.618;1.474;2022-12-07T17:08:48;7.90;1.00
31975;DHT22;18500;43.618;1.474;2022-12-07T17:11:16;7.80;1.00
31975;DHT22;18500;43.618;1.474;2022-12-07T17:13:42;7.80;1.00
31975;DHT22;18500;43.618;1.474;2022-12-07T17:16:27;7.80;1.00
31975;DHT22;18500;43.618;1.474;2022-12-07T17:18:54;7.70;1.00
31975;DHT22;18500;43.618;1.474;2022-12-07T17:21:20;7.80;1.00
31975;DHT22;18500;43.618;1.474;2022-12-07T17:23:46;7.70;1.00
31975;DHT22;18500;43.618;1.474;2022-12-07T17:26:14;7.50;1.00
31975;DHT22;18500;43.618;1.474;2022-12-07T17:28:40;7.40;1.00
31975;DHT22;18500;43.618;1.474;2022-12-07T17:31:08;7.20;1.00
31975;DHT22;18500;43.618;1.474;2022-12-07T17:33:35;7.00;1.00
31975;DHT22;18500;43.618;1.474;2022-12-07T17:36:01;6.90;1.00
31975;DHT22;18500;43.618;1.474;2022-12-07T17:38:28;6.80;1.00
31975;DHT22;18500;43.618;1.474;2022-12-07T17:40:54;6.80;1.00
31975;DHT22;18500;43.618;1.474;2022-12-07T17:43:19;6.80;1.00
31975;DHT22;18500;43.618;1.474;2022-12-07T17:45:45;6.60;1.00
31975;DHT22;18500;43.618;1.474;2022-12-07T17:48:11;6.60;1.00
31975;DHT22;18500;43.618;1.474;2022-12-07T17:50:38;6.50;1.00
31975;DHT22;18500;43.618;1.474;2022-12-07T17:53:23;6.50;1.00
31975;DHT22;18500;43.618;1.474;2022-12-07T17:55:52;6.40;1.00
31975;DHT22;18500;43.618;1.474;2022-12-07T17:58:19;6.40;1.00
31975;DHT22;18500;43.618;1.474;2022-12-07T18:00:45;6.30;1.00
31975;DHT22;18500;43.618;1.474;2022-12-07T18:03:10;6.20;1.00
31975;DHT22;18500;43.618;1.474;2022-12-07T18:05:37;6.20;1.00
31975;DHT22;18500;43.618;1.474;2022-12-07T18:08:04;6.10;1.00
31975;DHT22;18500;43.618;1.474;2022-12-07T18:10:30;6.10;1.00
31975;DHT22;18500;43.618;1.474;2022-12-07T18:12:56;6.10;1.00
31975;DHT22;18500;43.618;1.474;2022-12-07T18:15:42;6.00;1.00
31975;DHT22;18500;43.618;1.474;2022-12-07T18:18:08;6.00;1.00
31975;DHT22;18500;43.618;1.474;2022-12-07T18:20:34;6.00;1.00
31975;DHT22;18500;43.618;1.474;2022-12-07T18:22:59;6.00;1.00
31975;DHT22;18500;43.618;1.474;2022-12-07T18:25:25;6.10;1.00
31975;DHT22;18500;43.618;1.474;2022-12-07T18:27:51;6.10;1.00
31975;DHT22;18500;43.618;1.474;2022-12-07T18:30:16;6.00;1.00
31975;DHT22;18500;43.618;1.474;2022-12-07T18:32:42;6.00;1.00
31975;DHT22;18500;43.618;1.474;2022-12-07T18:35:08;5.90;1.00
31975;DHT22;18500;43.618;1.474;2022-12-07T18:37:34;5.90;1.00
31975;DHT22;18500;43.618;1.474;2022-12-07T18:39:59;6.00;1.00
31975;DHT22;18500;43.618;1.474;2022-12-07T18:42:25;6.00;1.00
31975;DHT22;18500;43.618;1.474;2022-12-07T18:44:50;6.00;1.00
31975;DHT22;18500;43.618;1.474;2022-12-07T18:47:16;5.90;1.00
31975;DHT22;18500;43.618;1.474;2022-12-07T18:49:42;5.90;1.00
31975;DHT22;18500;43.618;1.474;2022-12-07T18:52:07;5.90;1.00
31975;DHT22;18500;43.618;1.474;2022-12-07T18:54:33;5.90;1.00
31975;DHT22;18500;43.618;1.474;2022-12-07T18:56:59;6.00;1.00
31975;DHT22;18500;43.618;1.474;2022-12-07T18:59:25;5.90;1.00
31975;DHT22;18500;43.618;1.474;2022-12-07T19:02:09;6.00;1.00
31975;DHT22;18500;43.618;1.474;2022-12-07T19:04:36;5.90;1.00
31975;DHT22;18500;43.618;1.474;2022-12-07T19:07:01;5.90;1.00
31975;DHT22;18500;43.618;1.474;2022-12-07T19:09:27;5.90;1.00
31975;DHT22;18500;43.618;1.474;2022-12-07T19:11:53;5.90;1.00
31975;DHT22;18500;43.618;1.474;2022-12-07T19:14:26;5.90;1.00
31975;DHT22;18500;43.618;1.474;2022-12-07T19:16:54;5.80;1.00
31975;DHT22;18500;43.618;1.474;2022-12-07T19:19:23;5.80;1.00
31975;DHT22;18500;43.618;1.474;2022-12-07T19:21:49;5.80;1.00
31975;DHT22;18500;43.618;1.474;2022-12-07T19:24:15;5.90;1.00
31975;DHT22;18500;43.618;1.474;2022-12-07T19:26:41;5.90;1.00
31975;DHT22;18500;43.618;1.474;2022-12-07T19:29:07;6.00;1.00
31975;DHT22;18500;43.618;1.474;2022-12-07T19:31:32;5.90;1.00
31975;DHT22;18500;43.618;1.474;2022-12-07T19:33:58;5.90;1.00
31975;DHT22;18500;43.618;1.474;2022-12-07T19:36:24;5.80;1.00
31975;DHT22;18500;43.618;1.474;2022-12-07T19:38:50;5.80;1.00
31975;DHT22;18500;43.618;1.474;2022-12-07T19:41:16;5.70;1.00
31975;DHT22;18500;43.618;1.474;2022-12-07T19:44:20;5.60;1.00
31975;DHT22;18500;43.618;1.474;2022-12-07T19:46:52;5.40;1.00
31975;DHT22;18500;43.618;1.474;2022-12-07T19:49:19;5.30;1.00
31975;DHT22;18500;43.618;1.474;2022-12-07T19:51:48;5.20;1.00
31975;DHT22;18500;43.618;1.474;2022-12-07T19:54:16;5.10;1.00
31975;DHT22;18500;43.618;1.474;2022-12-07T19:56:42;5.10;1.00
31975;DHT22;18500;43.618;1.474;2022-12-07T19:59:09;5.00;1.00
31975;DHT22;18500;43.618;1.474;2022-12-07T20:01:35;4.90;1.00
31975;DHT22;18500;43.618;1.474;2022-12-07T20:04:07;4.90;1.00
31975;DHT22;18500;43.618;1.474;2022-12-07T20:06:33;4.90;1.00
31975;DHT22;18500;43.618;1.474;2022-12-07T20:08:59;4.90;1.00
31975;DHT22;18500;43.618;1.474;2022-12-07T20:11:24;4.90;1.00
31975;DHT22;18500;43.618;1.474;2022-12-07T20:14:10;4.80;1.00
31975;DHT22;18500;43.618;1.474;2022-12-07T20:16:37;4.70;1.00
31975;DHT22;18500;43.618;1.474;2022-12-07T20:19:07;4.70;1.00
31975;DHT22;18500;43.618;1.474;2022-12-07T20:21:34;4.70;1.00
31975;DHT22;18500;43.618;1.474;2022-12-07T20:24:01;4.70;1.00
31975;DHT22;18500;43.618;1.474;2022-12-07T20:26:27;4.70;1.00
31975;DHT22;18500;43.618;1.474;2022-12-07T20:28:53;4.70;1.00
31975;DHT22;18500;43.618;1.474;2022-12-07T20:31:19;4.70;1.00
31975;DHT22;18500;43.618;1.474;2022-12-07T20:33:45;4.60;1.00
31975;DHT22;18500;43.618;1.474;2022-12-07T20:36:12;4.60;1.00
31975;DHT22;18500;43.618;1.474;2022-12-07T20:38:38;4.50;1.00
31975;DHT22;18500;43.618;1.474;2022-12-07T20:41:06;4.50;1.00
31975;DHT22;18500;43.618;1.474;2022-12-07T20:43:33;4.60;1.00
31975;DHT22;18500;43.618;1.474;2022-12-07T20:45:59;4.60;1.00
31975;DHT22;18500;43.618;1.474;2022-12-07T20:48:25;4.60;1.00
31975;DHT22;18500;43.618;1.474;2022-12-07T20:50:51;4.60;1.00
31975;DHT22;18500;43.618;1.474;2022-12-07T20:53:17;4.60;1.00
31975;DHT22;18500;43.618;1.474;2022-12-07T20:55:43;4.60;1.00
31975;DHT22;18500;43.618;1.474;2022-12-07T20:58:09;4.70;1.00
31975;DHT22;18500;43.618;1.474;2022-12-07T21:00:35;4.60;1.00
31975;DHT22;18500;43.618;1.474;2022-12-07T21:03:05;4.60;1.00
31975;DHT22;18500;43.618;1.474;2022-12-07T21:05:31;4.70;1.00
31975;DHT22;18500;43.618;1.474;2022-12-07T21:07:57;4.70;1.00
31975;DHT22;18500;43.618;1.474;2022-12-07T21:10:23;4.70;1.00
31975;DHT22;18500;43.618;1.474;2022-12-07T21:12:48;4.60;1.00
31975;DHT22;18500;43.618;1.474;2022-12-07T21:15:14;4.70;1.00
31975;DHT22;18500;43.618;1.474;2022-12-07T21:17:40;4.60;1.00
31975;DHT22;18500;43.618;1.474;2022-12-07T21:20:06;4.60;1.00
31975;DHT22;18500;43.618;1.474;2022-12-07T21:22:32;4.60;1.00
31975;DHT22;18500;43.618;1.474;2022-12-07T21:24:57;4.50;1.00
31975;DHT22;18500;43.618;1.474;2022-12-07T21:27:23;4.50;1.00
31975;DHT22;18500;43.618;1.474;2022-12-07T21:29:49;4.50;1.00
31975;DHT22;18500;43.618;1.474;2022-12-07T21:32:14;4.50;1.00
31975;DHT22;18500;43.618;1.474;2022-12-07T21:34:40;4.50;1.00
31975;DHT22;18500;43.618;1.474;2022-12-07T21:37:06;4.50;1.00
31975;DHT22;18500;43.618;1.474;2022-12-07T21:39:31;4.40;1.00
31975;DHT22;18500;43.618;1.474;2022-12-07T21:41:57;4.40;1.00
31975;DHT22;18500;43.618;1.474;2022-12-07T21:44:23;4.30;1.00
31975;DHT22;18500;43.618;1.474;2022-12-07T21:46:48;4.30;1.00
31975;DHT22;18500;43.618;1.474;2022-12-07T21:49:14;4.20;1.00
31975;DHT22;18500;43.618;1.474;2022-12-07T21:51:41;4.20;1.00
31975;DHT22;18500;43.618;1.474;2022-12-07T21:54:08;4.30;1.00
31975;DHT22;18500;43.618;1.474;2022-12-07T21:56:40;4.20;1.00
31975;DHT22;18500;43.618;1.474;2022-12-07T21:59:11;4.10;1.00
31975;DHT22;18500;43.618;1.474;2022-12-07T22:01:38;4.00;1.00
31975;DHT22;18500;43.618;1.474;2022-12-07T22:04:39;4.00;1.00
31975;DHT22;18500;43.618;1.474;2022-12-07T22:07:04;4.00;1.00
31975;DHT22;18500;43.618;1.474;2022-12-07T22:09:30;3.90;1.00
31975;DHT22;18500;43.618;1.474;2022-12-07T22:11:56;3.80;1.00
31975;DHT22;18500;43.618;1.474;2022-12-07T22:14:22;3.80;1.00
31975;DHT22;18500;43.618;1.474;2022-12-07T22:17:06;3.70;1.00
31975;DHT22;18500;43.618;1.474;2022-12-07T22:19:32;3.70;1.00
31975;DHT22;18500;43.618;1.474;2022-12-07T22:21:57;3.70;1.00
31975;DHT22;18500;43.618;1.474;2022-12-07T22:24:23;3.70;1.00
31975;DHT22;18500;43.618;1.474;2022-12-07T22:26:49;3.70;1.00
31975;DHT22;18500;43.618;1.474;2022-12-07T22:29:14;3.70;1.00
31975;DHT22;18500;43.618;1.474;2022-12-07T22:31:40;3.70;1.00
31975;DHT22;18500;43.618;1.474;2022-12-07T22:34:06;3.60;1.00
31975;DHT22;18500;43.618;1.474;2022-12-07T22:36:36;3.60;1.00
31975;DHT22;18500;43.618;1.474;2022-12-07T22:39:02;3.60;1.00
31975;DHT22;18500;43.618;1.474;2022-12-07T22:41:29;3.50;1.00
31975;DHT22;18500;43.618;1.474;2022-12-07T22:43:56;3.50;1.00
31975;DHT22;18500;43.618;1.474;2022-12-07T22:46:23;3.50;1.00
31975;DHT22;18500;43.618;1.474;2022-12-07T22:48:49;3.50;1.00
31975;DHT22;18500;43.618;1.474;2022-12-07T22:51:20;3.50;1.00
31975;DHT22;18500;43.618;1.474;2022-12-07T22:53:46;3.40;1.00
31975;DHT22;18500;43.618;1.474;2022-12-07T22:56:12;3.40;1.00
31975;DHT22;18500;43.618;1.474;2022-12-07T22:58:39;3.40;1.00
